createdAt,value
2022-12-06T00:01:33.610Z,5.50
2022-12-06T00:04:05.846Z,5.50
2022-12-06T00:06:41.043Z,5.50
2022-12-06T00:09:10.631Z,5.60
2022-12-06T00:11:38.880Z,5.50
2022-12-06T00:14:08.558Z,5.50
2022-12-06T00:16:52.710Z,5.50
2022-12-06T00:19:24.180Z,5.60
2022-12-06T00:21:52.806Z,5.60
2022-12-06T00:24:26.336Z,5.50
2022-12-06T00:26:54.883Z,5.50
2022-12-06T00:29:24.865Z,5.50
2022-12-06T00:31:53.412Z,5.50
2022-12-06T00:34:23.013Z,5.50
2022-12-06T00:36:51.418Z,5.50
2022-12-06T00:39:20.097Z,5.50
2022-12-06T00:41:48.302Z,5.60
2022-12-06T00:44:16.540Z,5.60
2022-12-06T00:47:12.327Z,5.60
2022-12-06T00:49:48.005Z,5.60
2022-12-06T00:52:16.248Z,5.60
2022-12-06T00:54:44.425Z,5.60
2022-12-06T00:57:12.661Z,5.60
2022-12-06T00:59:40.899Z,5.60
2022-12-06T01:02:09.665Z,5.50
2022-12-06T01:04:38.359Z,5.60
2022-12-06T01:07:07.908Z,5.60
2022-12-06T01:09:36.212Z,5.60
2022-12-06T01:12:04.742Z,5.50
2022-12-06T01:14:32.904Z,5.50
2022-12-06T01:17:01.273Z,5.50
2022-12-06T01:19:29.528Z,5.60
2022-12-06T01:21:57.927Z,5.50
2022-12-06T01:24:45.803Z,5.60
2022-12-06T01:27:14.134Z,5.60
2022-12-06T01:29:42.515Z,5.60
2022-12-06T01:32:36.057Z,5.60
2022-12-06T01:35:04.456Z,5.60
2022-12-06T01:37:32.720Z,5.60
2022-12-06T01:40:02.438Z,5.60
2022-12-06T01:42:30.780Z,5.60
2022-12-06T01:45:00.662Z,5.60
2022-12-06T01:47:31.207Z,5.60
2022-12-06T01:50:03.944Z,5.60
2022-12-06T01:52:50.384Z,5.60
2022-12-06T01:55:23.356Z,5.60
2022-12-06T01:57:53.909Z,5.60
2022-12-06T02:00:22.266Z,5.60
2022-12-06T02:02:50.637Z,5.60
2022-12-06T02:05:19.340Z,5.60
2022-12-06T02:07:48.356Z,5.60
2022-12-06T02:10:16.676Z,5.60
2022-12-06T02:12:47.020Z,5.60
2022-12-06T02:15:15.358Z,5.60
2022-12-06T02:17:49.294Z,5.60
2022-12-06T02:20:25.953Z,5.60
2022-12-06T02:23:27.884Z,5.60
2022-12-06T02:26:19.510Z,5.60
2022-12-06T02:29:23.072Z,5.60
2022-12-06T02:31:58.229Z,5.60
2022-12-06T02:34:55.575Z,5.60
2022-12-06T02:37:29.940Z,5.60
2022-12-06T02:40:04.387Z,5.60
2022-12-06T02:42:37.846Z,5.50
2022-12-06T02:45:11.811Z,5.50
2022-12-06T02:47:43.534Z,5.50
2022-12-06T02:50:15.306Z,5.50
2022-12-06T02:52:46.168Z,5.50
2022-12-06T02:55:16.786Z,5.50
2022-12-06T02:57:47.605Z,5.50
2022-12-06T03:00:38.954Z,5.50
2022-12-06T03:03:34.190Z,5.50
2022-12-06T03:06:34.653Z,5.50
2022-12-06T03:09:10.085Z,5.50
2022-12-06T03:11:48.194Z,5.50
2022-12-06T03:14:21.130Z,5.50
2022-12-06T03:16:52.292Z,5.50
2022-12-06T03:19:24.579Z,5.50
2022-12-06T03:21:59.037Z,5.50
2022-12-06T03:24:30.862Z,5.50
2022-12-06T03:27:02.923Z,5.50
2022-12-06T03:29:32.851Z,5.50
2022-12-06T03:32:03.976Z,5.50
2022-12-06T03:34:37.796Z,5.50
2022-12-06T03:37:09.047Z,5.50
2022-12-06T03:39:44.554Z,5.50
2022-12-06T03:42:13.754Z,5.50
2022-12-06T03:44:42.322Z,5.50
2022-12-06T03:47:16.286Z,5.50
2022-12-06T03:50:11.153Z,5.50
2022-12-06T03:52:40.556Z,5.50
2022-12-06T03:55:09.660Z,5.50
2022-12-06T03:57:38.030Z,5.50
2022-12-06T04:00:25.839Z,5.50
2022-12-06T04:02:54.123Z,5.50
2022-12-06T04:05:23.770Z,5.50
2022-12-06T04:08:17.004Z,5.50
2022-12-06T04:10:45.294Z,5.50
2022-12-06T04:13:19.327Z,5.50
2022-12-06T04:15:48.317Z,5.50
2022-12-06T04:18:16.390Z,5.50
2022-12-06T04:21:05.565Z,5.60
2022-12-06T04:23:35.708Z,5.50
2022-12-06T04:26:05.670Z,5.50
2022-12-06T04:28:56.394Z,5.50
2022-12-06T04:31:42.559Z,5.60
2022-12-06T04:37:45.917Z,5.60
2022-12-06T04:40:14.166Z,5.50
2022-12-06T04:42:59.869Z,5.50
2022-12-06T04:45:28.153Z,5.50
2022-12-06T04:47:58.941Z,5.50
2022-12-06T04:50:27.125Z,5.50
2022-12-06T04:52:56.712Z,5.50
2022-12-06T04:55:24.947Z,5.50
2022-12-06T04:57:53.115Z,5.50
2022-12-06T05:00:21.825Z,5.50
2022-12-06T05:02:50.022Z,5.50
2022-12-06T05:05:18.266Z,5.50
2022-12-06T05:07:46.515Z,5.40
2022-12-06T05:10:16.330Z,5.50
2022-12-06T05:12:44.627Z,5.40
2022-12-06T05:15:15.878Z,5.40
2022-12-06T05:17:44.337Z,5.50
2022-12-06T05:20:14.314Z,5.50
2022-12-06T05:22:42.801Z,5.50
2022-12-06T05:25:11.345Z,5.50
2022-12-06T05:27:41.020Z,5.50
2022-12-06T05:30:10.518Z,5.50
2022-12-06T05:32:39.798Z,5.50
2022-12-06T05:35:09.221Z,5.50
2022-12-06T05:37:37.514Z,5.60
2022-12-06T05:40:06.784Z,5.60
2022-12-06T05:42:35.002Z,5.60
2022-12-06T05:45:24.905Z,5.60
2022-12-06T05:47:53.111Z,5.60
2022-12-06T05:50:47.199Z,5.60
2022-12-06T05:53:16.059Z,5.60
2022-12-06T05:55:45.187Z,5.60
2022-12-06T05:58:14.139Z,5.60
2022-12-06T06:00:46.652Z,5.60
2022-12-06T06:03:15.208Z,5.60
2022-12-06T06:05:48.198Z,5.60
2022-12-06T06:08:16.807Z,5.60
2022-12-06T06:10:45.357Z,5.60
2022-12-06T06:13:13.827Z,5.60
2022-12-06T06:15:43.449Z,5.60
2022-12-06T06:18:11.644Z,5.70
2022-12-06T06:20:40.209Z,5.70
2022-12-06T06:23:08.465Z,5.70
2022-12-06T06:25:36.707Z,5.80
2022-12-06T06:28:05.015Z,5.80
2022-12-06T06:30:33.402Z,5.70
2022-12-06T06:33:03.107Z,5.80
2022-12-06T06:35:32.029Z,5.80
2022-12-06T06:38:00.414Z,5.80
2022-12-06T06:40:28.857Z,5.80
2022-12-06T06:42:57.488Z,5.90
2022-12-06T06:45:28.882Z,5.90
2022-12-06T06:47:57.570Z,5.90
2022-12-06T06:50:27.363Z,6.00
2022-12-06T06:52:55.720Z,6.00
2022-12-06T06:55:23.997Z,6.00
2022-12-06T06:57:52.308Z,6.00
2022-12-06T07:00:20.731Z,6.10
2022-12-06T07:02:48.950Z,6.10
2022-12-06T07:05:17.277Z,6.10
2022-12-06T07:07:47.102Z,6.10
2022-12-06T07:10:15.494Z,6.10
2022-12-06T07:12:51.488Z,6.20
2022-12-06T07:15:19.838Z,6.20
2022-12-06T07:17:48.064Z,6.20
2022-12-06T07:20:16.524Z,6.20
2022-12-06T07:22:46.224Z,6.20
2022-12-06T07:25:17.650Z,6.20
2022-12-06T07:28:05.178Z,6.30
2022-12-06T07:30:33.727Z,6.40
2022-12-06T07:33:02.470Z,6.30
2022-12-06T07:35:55.656Z,6.40
2022-12-06T07:38:20.407Z,6.40
2022-12-06T07:41:03.929Z,6.40
2022-12-06T07:43:50.784Z,6.50
2022-12-06T07:46:21.561Z,6.50
2022-12-06T07:48:49.793Z,6.50
2022-12-06T07:51:18.024Z,6.50
2022-12-06T07:53:47.655Z,6.50
2022-12-06T07:56:15.850Z,6.50
2022-12-06T07:58:44.091Z,6.50
2022-12-06T08:01:12.410Z,6.50
2022-12-06T08:03:40.749Z,6.50
2022-12-06T08:06:09.415Z,6.50
2022-12-06T08:08:38.424Z,6.50
2022-12-06T08:11:09.795Z,6.60
2022-12-06T08:13:38.800Z,6.70
2022-12-06T08:16:07.970Z,6.70
2022-12-06T08:18:39.072Z,6.80
2022-12-06T08:21:07.919Z,6.80
2022-12-06T08:23:36.576Z,6.80
2022-12-06T08:26:08.887Z,6.80
2022-12-06T08:28:41.473Z,6.80
2022-12-06T08:31:11.587Z,6.80
2022-12-06T08:33:40.355Z,6.80
2022-12-06T08:36:09.643Z,6.80
2022-12-06T08:38:37.861Z,6.80
2022-12-06T08:41:28.404Z,6.90
2022-12-06T08:43:57.347Z,7.00
2022-12-06T08:46:26.083Z,6.90
2022-12-06T08:48:54.341Z,7.00
2022-12-06T08:51:22.578Z,7.00
2022-12-06T08:53:52.961Z,7.00
2022-12-06T08:56:22.575Z,7.00
2022-12-06T08:58:51.158Z,7.10
2022-12-06T09:01:21.935Z,7.10
2022-12-06T09:03:50.433Z,7.10
2022-12-06T09:06:44.105Z,7.10
2022-12-06T09:09:13.943Z,7.30
2022-12-06T09:11:44.642Z,7.30
2022-12-06T09:14:20.939Z,7.30
2022-12-06T09:16:51.077Z,7.30
2022-12-06T09:19:20.330Z,7.50
2022-12-06T09:21:52.514Z,7.60
2022-12-06T09:24:21.068Z,7.80
2022-12-06T09:26:50.667Z,8.10
2022-12-06T09:29:19.999Z,8.50
2022-12-06T09:31:48.288Z,8.90
2022-12-06T09:34:17.090Z,9.20
2022-12-06T09:36:50.078Z,9.60
2022-12-06T09:39:22.440Z,10.00
2022-12-06T09:42:36.682Z,10.30
2022-12-06T09:45:18.820Z,10.70
2022-12-06T09:48:06.464Z,10.70
2022-12-06T09:50:47.900Z,10.60
2022-12-06T09:53:24.543Z,10.30
2022-12-06T09:56:03.908Z,10.00
2022-12-06T09:58:50.627Z,9.90
2022-12-06T10:01:27.045Z,9.70
2022-12-06T10:04:23.456Z,9.50
2022-12-06T10:07:03.838Z,9.30
2022-12-06T10:09:42.875Z,9.20
2022-12-06T10:12:25.831Z,9.20
2022-12-06T10:15:09.147Z,9.20
2022-12-06T10:17:52.286Z,9.20
2022-12-06T10:20:30.851Z,9.10
2022-12-06T10:23:11.856Z,9.10
2022-12-06T10:25:43.375Z,9.10
2022-12-06T10:28:15.112Z,9.20
2022-12-06T10:30:52.469Z,9.30
2022-12-06T10:33:28.744Z,9.50
2022-12-06T10:36:01.937Z,9.50
2022-12-06T10:38:36.854Z,9.60
2022-12-06T10:41:13.082Z,9.60
2022-12-06T10:43:51.190Z,9.60
2022-12-06T10:47:06.369Z,9.60
2022-12-06T10:49:45.275Z,9.60
2022-12-06T10:52:25.664Z,9.70
2022-12-06T10:55:03.887Z,9.80
2022-12-06T10:57:37.727Z,9.80
2022-12-06T11:00:15.787Z,9.80
2022-12-06T11:02:54.656Z,9.80
2022-12-06T11:05:27.723Z,9.80
2022-12-06T11:08:00.801Z,9.80
2022-12-06T11:10:33.005Z,9.70
2022-12-06T11:13:13.101Z,9.70
2022-12-06T11:15:46.382Z,9.60
2022-12-06T11:18:18.784Z,9.60
2022-12-06T11:20:51.632Z,9.60
2022-12-06T11:23:28.231Z,9.60
2022-12-06T11:26:15.235Z,9.70
2022-12-06T11:28:46.580Z,9.70
2022-12-06T11:31:21.185Z,9.60
2022-12-06T11:33:51.031Z,9.80
2022-12-06T11:36:21.204Z,9.90
2022-12-06T11:38:49.668Z,9.90
2022-12-06T11:41:23.503Z,10.00
2022-12-06T11:43:53.602Z,10.10
2022-12-06T11:46:23.410Z,10.10
2022-12-06T11:48:53.739Z,10.10
2022-12-06T11:51:24.836Z,10.10
2022-12-06T11:54:00.644Z,10.00
2022-12-06T11:56:31.435Z,9.90
2022-12-06T11:59:08.941Z,9.70
2022-12-06T12:01:43.634Z,9.60
2022-12-06T12:04:29.112Z,9.50
2022-12-06T12:07:01.248Z,9.40
2022-12-06T12:09:32.398Z,9.40
2022-12-06T12:12:05.428Z,9.30
2022-12-06T12:14:39.667Z,9.40
2022-12-06T12:17:18.456Z,9.50
2022-12-06T12:19:53.184Z,9.60
2022-12-06T12:22:29.904Z,9.60
2022-12-06T12:27:50.350Z,9.50
2022-12-06T12:30:22.400Z,9.50
2022-12-06T12:32:52.436Z,9.50
2022-12-06T12:35:29.261Z,9.60
2022-12-06T12:38:01.591Z,9.70
2022-12-06T12:40:32.031Z,9.70
2022-12-06T12:43:04.145Z,9.70
2022-12-06T12:45:40.794Z,9.70
2022-12-06T12:48:23.179Z,9.70
2022-12-06T12:50:56.513Z,9.70
2022-12-06T12:53:30.739Z,9.60
2022-12-06T12:56:08.318Z,9.60
2022-12-06T12:58:36.812Z,9.60
2022-12-06T13:01:26.989Z,9.40
2022-12-06T13:03:58.620Z,9.30
2022-12-06T13:06:40.371Z,9.20
2022-12-06T13:09:12.222Z,9.10
2022-12-06T13:11:45.672Z,9.00
2022-12-06T13:14:19.564Z,8.90
2022-12-06T13:16:50.236Z,9.00
2022-12-06T13:19:21.328Z,9.00
2022-12-06T13:21:52.687Z,9.00
2022-12-06T13:24:25.126Z,8.90
2022-12-06T13:26:59.032Z,8.90
2022-12-06T13:29:35.463Z,8.90
2022-12-06T13:32:09.111Z,8.90
2022-12-06T13:34:40.836Z,8.90
2022-12-06T13:37:29.636Z,8.80
2022-12-06T13:39:59.403Z,8.80
2022-12-06T13:42:45.531Z,8.70
2022-12-06T13:45:40.957Z,8.70
2022-12-06T13:48:39.534Z,8.70
2022-12-06T13:51:12.979Z,8.60
2022-12-06T13:54:18.554Z,8.60
2022-12-06T13:56:48.234Z,8.50
2022-12-06T13:59:40.585Z,8.50
2022-12-06T14:02:51.771Z,8.50
2022-12-06T14:06:04.942Z,8.40
2022-12-06T14:08:41.116Z,8.30
2022-12-06T14:11:24.628Z,8.30
2022-12-06T14:14:08.745Z,8.40
2022-12-06T14:16:42.199Z,8.30
2022-12-06T14:19:20.440Z,8.30
2022-12-06T14:21:57.156Z,8.30
2022-12-06T14:24:32.456Z,8.30
2022-12-06T14:27:12.058Z,8.20
2022-12-06T14:29:42.246Z,8.20
2022-12-06T14:32:11.402Z,8.10
2022-12-06T14:34:39.764Z,8.00
2022-12-06T14:37:19.912Z,7.90
2022-12-06T14:39:53.335Z,7.90
2022-12-06T14:42:44.990Z,7.90
2022-12-06T14:45:17.357Z,7.80
2022-12-06T14:47:46.342Z,7.70
2022-12-06T14:50:30.628Z,7.60
2022-12-06T14:53:05.204Z,7.60
2022-12-06T14:55:35.172Z,7.50
2022-12-06T14:58:13.015Z,7.40
2022-12-06T15:00:53.080Z,7.30
2022-12-06T15:03:32.148Z,7.30
2022-12-06T15:06:26.315Z,7.20
2022-12-06T15:09:13.163Z,7.10
2022-12-06T15:12:00.475Z,7.10
2022-12-06T15:14:49.070Z,7.00
2022-12-06T15:17:20.727Z,6.90
2022-12-06T15:19:50.754Z,6.90
2022-12-06T15:22:24.978Z,6.90
2022-12-06T15:24:56.487Z,6.80
2022-12-06T15:27:26.942Z,6.80
2022-12-06T15:29:55.541Z,6.70
2022-12-06T15:32:26.677Z,6.70
2022-12-06T15:34:54.923Z,6.60
2022-12-06T15:37:38.773Z,6.50
2022-12-06T15:40:09.196Z,6.50
2022-12-06T15:42:37.425Z,6.50
2022-12-06T15:45:06.746Z,6.40
2022-12-06T15:47:36.644Z,6.40
2022-12-06T15:50:05.311Z,6.30
2022-12-06T15:52:33.676Z,6.20
2022-12-06T15:55:14.619Z,6.20
2022-12-06T15:57:42.911Z,6.10
2022-12-06T16:00:11.962Z,6.00
2022-12-06T16:02:41.560Z,6.00
2022-12-06T16:05:16.137Z,5.90
2022-12-06T16:07:44.485Z,5.90
2022-12-06T16:10:15.587Z,5.80
2022-12-06T16:13:05.010Z,5.70
2022-12-06T16:15:33.245Z,5.70
2022-12-06T16:18:03.081Z,5.70
2022-12-06T16:20:35.109Z,5.70
2022-12-06T16:23:22.848Z,5.60
2022-12-06T16:25:51.101Z,5.60
2022-12-06T16:28:19.370Z,5.60
2022-12-06T16:30:47.602Z,5.50
2022-12-06T16:33:18.748Z,5.50
2022-12-06T16:35:47.642Z,5.40
2022-12-06T16:38:16.990Z,5.50
2022-12-06T16:40:46.745Z,5.50
2022-12-06T16:43:15.187Z,5.60
2022-12-06T16:45:45.144Z,5.60
2022-12-06T16:48:18.344Z,5.60
2022-12-06T16:50:48.053Z,5.60
2022-12-06T16:53:16.801Z,5.60
2022-12-06T16:55:45.086Z,5.50
2022-12-06T16:58:13.924Z,5.50
2022-12-06T17:00:42.317Z,5.50
2022-12-06T17:03:12.369Z,5.40
2022-12-06T17:05:42.843Z,5.40
2022-12-06T17:08:11.196Z,5.40
2022-12-06T17:10:39.508Z,5.30
2022-12-06T17:13:07.737Z,5.20
2022-12-06T17:15:35.982Z,5.20
2022-12-06T17:18:04.212Z,5.10
2022-12-06T17:20:32.638Z,5.10
2022-12-06T17:23:03.172Z,5.00
2022-12-06T17:25:31.356Z,4.90
2022-12-06T17:27:59.632Z,4.90
2022-12-06T17:30:27.813Z,4.90
2022-12-06T17:32:56.023Z,4.90
2022-12-06T17:35:25.039Z,4.80
2022-12-06T17:37:53.316Z,4.80
2022-12-06T17:40:41.058Z,4.80
2022-12-06T17:43:10.075Z,4.70
2022-12-06T17:45:38.352Z,4.70
2022-12-06T17:48:07.147Z,4.70
2022-12-06T17:50:35.913Z,4.70
2022-12-06T17:53:29.468Z,4.60
2022-12-06T17:56:26.049Z,4.60
2022-12-06T17:58:55.339Z,4.70
2022-12-06T18:01:24.289Z,4.70
2022-12-06T18:03:53.334Z,4.70
2022-12-06T18:06:22.175Z,4.70
2022-12-06T18:08:50.986Z,4.70
2022-12-06T18:11:21.288Z,4.70
2022-12-06T18:13:49.615Z,4.60
2022-12-06T18:16:19.836Z,4.70
2022-12-06T18:18:49.184Z,4.70
2022-12-06T18:21:18.372Z,4.70
2022-12-06T18:24:19.437Z,4.70
2022-12-06T18:26:37.512Z,4.80
2022-12-06T18:29:07.496Z,4.80
2022-12-06T18:31:36.993Z,4.80
2022-12-06T18:34:05.273Z,4.80
2022-12-06T18:36:33.575Z,4.80
2022-12-06T18:39:03.246Z,4.80
2022-12-06T18:41:31.476Z,4.80
2022-12-06T18:44:03.354Z,4.90
2022-12-06T18:46:32.213Z,4.90
2022-12-06T18:49:02.669Z,4.90
2022-12-06T18:51:34.728Z,4.90
2022-12-06T18:54:05.092Z,5.00
2022-12-06T18:56:34.642Z,5.00
2022-12-06T18:59:06.344Z,5.00
2022-12-06T19:01:37.007Z,5.00
2022-12-06T19:04:07.622Z,5.10
2022-12-06T19:06:48.656Z,5.10
2022-12-06T19:09:16.906Z,5.00
2022-12-06T19:11:46.854Z,5.00
2022-12-06T19:14:17.200Z,5.00
2022-12-06T19:16:46.944Z,5.00
2022-12-06T19:19:18.527Z,5.00
2022-12-06T19:21:47.577Z,4.90
2022-12-06T19:24:17.935Z,5.00
2022-12-06T19:26:46.162Z,4.90
2022-12-06T19:29:16.465Z,4.90
2022-12-06T19:31:45.103Z,4.90
2022-12-06T19:34:18.871Z,5.00
2022-12-06T19:36:49.157Z,5.00
2022-12-06T19:39:17.966Z,5.00
2022-12-06T19:42:04.775Z,5.00
2022-12-06T19:44:34.528Z,5.00
2022-12-06T19:47:02.876Z,5.00
2022-12-06T19:49:31.269Z,5.00
2022-12-06T19:52:14.891Z,5.00
2022-12-06T19:54:43.659Z,5.00
2022-12-06T19:57:12.378Z,5.10
2022-12-06T19:59:42.135Z,5.10
2022-12-06T20:02:13.489Z,5.10
2022-12-06T20:04:43.961Z,5.10
2022-12-06T20:07:12.349Z,5.10
2022-12-06T20:09:40.601Z,5.10
2022-12-06T20:12:09.155Z,5.10
2022-12-06T20:14:40.010Z,5.10
2022-12-06T20:17:12.051Z,5.00
2022-12-06T20:19:42.994Z,5.10
2022-12-06T20:22:11.730Z,5.00
2022-12-06T20:24:40.084Z,5.10
2022-12-06T20:27:08.354Z,5.10
2022-12-06T20:29:36.580Z,5.10
2022-12-06T20:32:05.782Z,5.10
2022-12-06T20:34:35.657Z,5.10
2022-12-06T20:37:05.951Z,5.20
2022-12-06T20:39:35.716Z,5.20
2022-12-06T20:42:06.028Z,5.10
2022-12-06T20:44:34.774Z,5.10
2022-12-06T20:47:03.142Z,5.20
2022-12-06T20:49:31.421Z,5.10
2022-12-06T20:52:02.827Z,5.20
2022-12-06T20:54:31.965Z,5.20
2022-12-06T20:57:00.268Z,5.20
2022-12-06T20:59:29.426Z,5.20
2022-12-06T21:01:57.952Z,5.20
2022-12-06T21:04:27.468Z,5.20
2022-12-06T21:06:56.032Z,5.20
2022-12-06T21:09:25.904Z,5.20
2022-12-06T21:11:54.221Z,5.20
2022-12-06T21:14:22.727Z,5.20
2022-12-06T21:16:50.999Z,5.20
2022-12-06T21:19:20.648Z,5.20
2022-12-06T21:21:57.787Z,5.20
2022-12-06T21:24:27.475Z,5.20
2022-12-06T21:26:56.149Z,5.20
2022-12-06T21:29:30.546Z,5.20
2022-12-06T21:32:01.896Z,5.30
2022-12-06T21:34:30.345Z,5.30
2022-12-06T21:36:58.799Z,5.40
2022-12-06T21:39:28.427Z,5.40
2022-12-06T21:41:57.006Z,5.30
2022-12-06T21:44:28.974Z,5.30
2022-12-06T21:46:57.312Z,5.30
2022-12-06T21:49:25.748Z,5.30
2022-12-06T21:52:01.123Z,5.30
2022-12-06T21:54:32.865Z,5.30
2022-12-06T21:57:01.132Z,5.30
2022-12-06T21:59:29.494Z,5.40
2022-12-06T22:01:57.802Z,5.40
2022-12-06T22:04:26.154Z,5.40
2022-12-06T22:06:54.345Z,5.40
2022-12-06T22:09:22.622Z,5.40
2022-12-06T22:12:05.476Z,5.40
2022-12-06T22:14:33.737Z,5.40
2022-12-06T22:17:01.942Z,5.40
2022-12-06T22:19:30.168Z,5.40
2022-12-06T22:21:58.883Z,5.40
2022-12-06T22:24:27.157Z,5.50
2022-12-06T22:26:55.567Z,5.50
2022-12-06T22:29:25.199Z,5.50
2022-12-06T22:31:54.610Z,5.50
2022-12-06T22:34:22.920Z,5.50
2022-12-06T22:36:51.178Z,5.50
2022-12-06T22:39:19.937Z,5.50
2022-12-06T22:41:48.148Z,5.40
2022-12-06T22:44:16.481Z,5.50
2022-12-06T22:46:46.095Z,5.50
2022-12-06T22:49:18.058Z,5.60
2022-12-06T22:51:46.865Z,5.60
2022-12-06T22:54:16.176Z,5.60
2022-12-06T22:56:48.633Z,5.60
2022-12-06T22:59:18.031Z,5.70
2022-12-06T23:01:47.752Z,5.60
2022-12-06T23:04:16.227Z,5.60
2022-12-06T23:07:05.983Z,5.60
2022-12-06T23:09:35.171Z,5.60
2022-12-06T23:12:03.512Z,5.60
2022-12-06T23:14:31.838Z,5.60
2022-12-06T23:17:01.680Z,5.60
2022-12-06T23:19:29.983Z,5.60
2022-12-06T23:21:58.263Z,5.60
2022-12-06T23:24:26.531Z,5.60
2022-12-06T23:26:58.151Z,5.60
2022-12-06T23:29:26.906Z,5.60
2022-12-06T23:31:55.176Z,5.60
2022-12-06T23:34:27.061Z,5.60
2022-12-06T23:36:55.538Z,5.60
2022-12-06T23:39:23.863Z,5.60
2022-12-06T23:41:52.159Z,5.60
2022-12-06T23:44:20.481Z,5.60
2022-12-06T23:46:48.838Z,5.60
2022-12-06T23:49:19.233Z,5.50
2022-12-06T23:51:49.522Z,5.50
2022-12-06T23:54:18.863Z,5.50
2022-12-06T23:56:47.778Z,5.50
2022-12-06T23:59:17.397Z,5.50
